createdAt,value
2018-09-25T00:02:26.634Z,58.00
2018-09-25T00:05:01.481Z,58.17
2018-09-25T00:07:36.276Z,58.24
2018-09-25T00:10:11.440Z,58.60
2018-09-25T00:12:46.231Z,58.26
2018-09-25T00:15:20.897Z,58.46
2018-09-25T00:17:56.222Z,58.89
2018-09-25T00:20:31.251Z,58.60
2018-09-25T00:23:06.309Z,58.59
2018-09-25T00:25:40.985Z,58.44
2018-09-25T00:28:15.739Z,58.56
2018-09-25T00:30:52.224Z,58.82
2018-09-25T00:33:27.357Z,58.60
2018-09-25T00:36:02.873Z,58.66
2018-09-25T00:38:37.398Z,58.73
2018-09-25T00:41:12.106Z,58.68
2018-09-25T00:43:47.059Z,58.68
2018-09-25T00:46:22.101Z,58.72
2018-09-25T00:48:56.749Z,58.81
2018-09-25T00:51:31.671Z,58.96
2018-09-25T00:54:06.321Z,58.55
2018-09-25T00:56:40.953Z,58.83
2018-09-25T00:59:15.485Z,58.91
2018-09-25T01:01:50.374Z,58.98
2018-09-25T01:04:25.282Z,58.85
2018-09-25T01:06:59.959Z,59.11
2018-09-25T01:09:35.146Z,58.80
2018-09-25T01:12:09.817Z,58.77
2018-09-25T01:14:44.543Z,58.94
2018-09-25T01:17:19.998Z,58.77
2018-09-25T01:19:55.125Z,59.11
2018-09-25T01:22:30.355Z,58.91
2018-09-25T01:25:05.245Z,58.83
2018-09-25T01:27:40.235Z,58.95
2018-09-25T01:30:15.331Z,59.06
2018-09-25T01:32:49.922Z,59.24
2018-09-25T01:35:24.882Z,58.94
2018-09-25T01:37:59.465Z,58.89
2018-09-25T01:40:34.437Z,59.43
2018-09-25T01:43:09.758Z,59.17
2018-09-25T01:45:44.518Z,59.02
2018-09-25T01:48:19.462Z,59.26
2018-09-25T01:50:54.158Z,59.06
2018-09-25T01:53:28.966Z,59.01
2018-09-25T01:56:03.656Z,59.14
2018-09-25T01:58:38.902Z,58.88
2018-09-25T02:01:13.466Z,58.95
2018-09-25T02:03:48.390Z,59.14
2018-09-25T02:06:23.493Z,59.27
2018-09-25T02:08:58.442Z,59.08
2018-09-25T02:11:33.126Z,59.14
2018-09-25T02:14:07.615Z,59.01
2018-09-25T02:16:42.430Z,58.80
2018-09-25T02:19:17.074Z,59.29
2018-09-25T02:21:52.255Z,59.32
2018-09-25T02:24:26.881Z,59.18
2018-09-25T02:27:03.044Z,59.25
2018-09-25T02:29:38.338Z,59.29
2018-09-25T02:32:13.979Z,59.43
2018-09-25T02:34:48.609Z,59.55
2018-09-25T02:37:24.579Z,59.20
2018-09-25T02:39:59.187Z,59.14
2018-09-25T02:42:33.997Z,59.14
2018-09-25T02:45:09.512Z,59.67
2018-09-25T02:47:44.970Z,59.20
2018-09-25T02:50:21.509Z,59.42
2018-09-25T02:52:56.221Z,59.48
2018-09-25T02:55:32.156Z,59.54
2018-09-25T02:58:08.245Z,59.50
2018-09-25T03:00:43.021Z,59.46
2018-09-25T03:03:17.707Z,59.49
2018-09-25T03:05:52.662Z,59.30
2018-09-25T03:08:28.215Z,59.26
2018-09-25T03:11:03.229Z,59.66
2018-09-25T03:13:37.900Z,59.57
2018-09-25T03:16:13.285Z,59.12
2018-09-25T03:18:49.447Z,59.69
2018-09-25T03:21:23.977Z,59.54
2018-09-25T03:23:58.912Z,59.65
2018-09-25T03:26:35.230Z,59.53
2018-09-25T03:29:11.216Z,59.54
2018-09-25T03:31:46.285Z,59.43
2018-09-25T03:34:21.646Z,59.67
2018-09-25T03:36:56.508Z,59.32
2018-09-25T03:39:31.264Z,59.79
2018-09-25T03:42:06.798Z,59.51
2018-09-25T03:44:42.891Z,59.53
2018-09-25T03:47:18.172Z,59.58
2018-09-25T03:49:52.842Z,59.55
2018-09-25T03:52:27.634Z,59.76
2018-09-25T03:55:02.206Z,59.66
2018-09-25T03:57:37.070Z,59.39
2018-09-25T04:00:13.945Z,59.76
2018-09-25T04:02:48.618Z,59.40
2018-09-25T04:05:23.717Z,59.25
2018-09-25T04:07:59.770Z,59.93
2018-09-25T04:10:34.261Z,59.65
2018-09-25T04:13:10.630Z,59.56
2018-09-25T04:15:46.668Z,59.60
2018-09-25T04:18:21.542Z,59.81
2018-09-25T04:21:00.476Z,60.00
2018-09-25T04:23:37.767Z,59.79
2018-09-25T04:26:14.023Z,59.87
2018-09-25T04:28:48.826Z,59.76
2018-09-25T04:31:23.892Z,59.55
2018-09-25T04:33:58.887Z,59.56
2018-09-25T04:36:33.736Z,59.82
2018-09-25T04:39:09.007Z,60.01
2018-09-25T04:41:43.999Z,59.96
2018-09-25T04:44:19.529Z,59.90
2018-09-25T04:49:28.277Z,60.19
2018-09-25T04:52:02.986Z,60.33
2018-09-25T04:54:37.978Z,59.92
2018-09-25T04:57:14.613Z,60.13
2018-09-25T04:59:49.363Z,60.06
2018-09-25T05:02:25.403Z,59.77
2018-09-25T05:05:00.678Z,60.01
2018-09-25T05:07:45.244Z,59.95
2018-09-25T05:10:25.772Z,59.50
2018-09-25T05:13:03.207Z,59.43
2018-09-25T05:15:38.041Z,59.54
2018-09-25T05:18:13.537Z,59.25
2018-09-25T05:20:49.719Z,59.00
2018-09-25T05:23:24.239Z,59.06
2018-09-25T05:26:00.277Z,58.80
2018-09-25T05:28:35.466Z,58.55
2018-09-25T05:31:10.973Z,58.61
2018-09-25T05:33:45.633Z,59.25
2018-09-25T05:36:21.683Z,59.10
2018-09-25T05:38:56.580Z,58.71
2018-09-25T05:41:31.493Z,58.63
2018-09-25T05:44:06.396Z,57.97
2018-09-25T05:46:40.848Z,58.18
2018-09-25T05:49:17.303Z,57.98
2018-09-25T05:51:53.114Z,58.17
2018-09-25T05:54:29.619Z,57.89
2018-09-25T05:57:04.385Z,57.84
2018-09-25T05:59:39.704Z,58.04
2018-09-25T06:02:17.878Z,57.88
2018-09-25T06:04:53.874Z,57.63
2018-09-25T06:07:30.255Z,57.58
2018-09-25T06:10:07.830Z,57.80
2018-09-25T06:12:45.987Z,57.45
2018-09-25T06:15:20.868Z,57.51
2018-09-25T06:17:55.433Z,57.00
2018-09-25T06:20:30.875Z,56.70
2018-09-25T06:23:06.832Z,57.44
2018-09-25T06:25:48.232Z,57.25
2018-09-25T06:28:24.296Z,56.65
2018-09-25T06:30:59.018Z,56.73
2018-09-25T06:33:34.731Z,56.55
2018-09-25T06:36:09.447Z,56.69
2018-09-25T06:38:45.276Z,56.57
2018-09-25T06:41:22.211Z,56.70
2018-09-25T06:43:57.172Z,56.70
2018-09-25T06:46:32.012Z,56.60
2018-09-25T06:49:07.902Z,56.44
2018-09-25T06:51:42.436Z,56.32
2018-09-25T06:54:17.567Z,56.38
2018-09-25T06:56:52.545Z,56.30
2018-09-25T06:59:27.047Z,56.01
2018-09-25T07:02:02.187Z,56.00
2018-09-25T07:04:37.978Z,56.31
2018-09-25T07:07:14.666Z,55.79
2018-09-25T07:09:49.818Z,55.78
2018-09-25T07:12:25.693Z,55.70
2018-09-25T07:15:02.314Z,55.83
2018-09-25T07:17:37.246Z,55.84
2018-09-25T07:20:13.406Z,55.75
2018-09-25T07:22:49.306Z,55.49
2018-09-25T07:25:25.220Z,55.74
2018-09-25T07:28:00.182Z,55.54
2018-09-25T07:30:35.699Z,55.40
2018-09-25T07:33:10.241Z,55.12
2018-09-25T07:35:44.901Z,55.32
2018-09-25T07:38:21.549Z,55.40
2018-09-25T07:40:58.380Z,54.75
2018-09-25T07:43:33.031Z,54.45
2018-09-25T07:46:08.707Z,54.47
2018-09-25T07:48:44.601Z,54.06
2018-09-25T07:51:19.237Z,54.10
2018-09-25T07:53:54.709Z,53.90
2018-09-25T07:56:29.902Z,54.23
2018-09-25T07:59:05.171Z,54.39
2018-09-25T08:01:40.521Z,54.54
2018-09-25T08:04:15.182Z,54.38
2018-09-25T08:06:50.019Z,54.22
2018-09-25T08:09:25.252Z,54.17
2018-09-25T08:12:01.258Z,54.21
2018-09-25T08:14:39.094Z,54.42
2018-09-25T08:17:14.598Z,54.04
2018-09-25T08:19:49.166Z,53.64
2018-09-25T08:22:23.795Z,53.57
2018-09-25T08:25:01.079Z,53.91
2018-09-25T08:27:36.851Z,53.58
2018-09-25T08:30:12.424Z,53.71
2018-09-25T08:32:48.373Z,53.59
2018-09-25T08:35:23.480Z,53.53
2018-09-25T08:37:58.208Z,53.87
2018-09-25T08:40:34.715Z,53.87
2018-09-25T08:43:10.206Z,53.83
2018-09-25T08:45:45.061Z,53.70
2018-09-25T08:48:23.042Z,53.62
2018-09-25T08:50:58.096Z,53.63
2018-09-25T08:53:32.810Z,53.59
2018-09-25T08:56:08.991Z,53.32
2018-09-25T08:58:46.479Z,53.59
2018-09-25T09:01:22.101Z,53.39
2018-09-25T09:03:57.166Z,53.27
2018-09-25T09:06:32.224Z,53.38
2018-09-25T09:09:07.434Z,53.43
2018-09-25T09:11:43.232Z,53.26
2018-09-25T09:14:19.767Z,53.50
2018-09-25T09:16:55.087Z,53.43
2018-09-25T09:19:29.799Z,53.28
2018-09-25T09:22:05.080Z,53.39
2018-09-25T09:24:40.186Z,53.10
2018-09-25T09:27:15.095Z,53.57
2018-09-25T09:29:50.393Z,53.56
2018-09-25T09:32:25.916Z,53.44
2018-09-25T09:35:02.715Z,53.69
2018-09-25T09:37:38.248Z,53.38
2018-09-25T09:40:13.162Z,53.42
2018-09-25T09:42:49.266Z,53.50
2018-09-25T09:51:19.205Z,53.70
2018-09-25T09:53:53.770Z,53.29
2018-09-25T09:56:29.219Z,53.52
2018-09-25T09:59:04.076Z,53.31
2018-09-25T10:01:52.016Z,53.22
2018-09-25T10:04:27.125Z,53.42
2018-09-25T10:07:02.422Z,53.27
2018-09-25T10:09:37.205Z,53.44
2018-09-25T10:12:12.872Z,53.63
2018-09-25T10:14:49.746Z,53.40
2018-09-25T10:17:25.641Z,53.55
2018-09-25T10:20:00.492Z,53.68
2018-09-25T10:22:36.078Z,53.24
2018-09-25T10:25:10.865Z,53.30
2018-09-25T10:27:45.782Z,53.08
2018-09-25T10:30:20.660Z,53.33
2018-09-25T10:32:55.357Z,53.08
2018-09-25T10:35:30.170Z,53.12
2018-09-25T10:38:05.334Z,52.67
2018-09-25T10:40:40.468Z,52.38
2018-09-25T10:43:15.298Z,52.52
2018-09-25T10:45:50.004Z,52.33
2018-09-25T10:48:25.021Z,52.63
2018-09-25T10:50:59.775Z,52.04
2018-09-25T10:53:34.404Z,52.19
2018-09-25T10:56:10.000Z,51.87
2018-09-25T10:58:45.741Z,51.88
2018-09-25T11:01:20.492Z,52.12
2018-09-25T11:03:56.570Z,52.29
2018-09-25T11:06:31.407Z,51.82
2018-09-25T11:09:06.340Z,51.62
2018-09-25T11:11:42.549Z,51.62
2018-09-25T11:14:17.432Z,52.04
2018-09-25T11:16:52.916Z,52.15
2018-09-25T11:19:28.194Z,51.66
2018-09-25T11:24:39.727Z,51.27
2018-09-25T11:27:14.408Z,51.46
2018-09-25T11:29:50.551Z,50.68
2018-09-25T11:32:25.190Z,50.85
2018-09-25T11:34:59.821Z,50.47
2018-09-25T11:37:34.523Z,50.35
2018-09-25T11:40:12.627Z,50.22
2018-09-25T11:42:47.553Z,50.58
2018-09-25T11:45:23.381Z,50.10
2018-09-25T11:47:58.289Z,49.87
2018-09-25T11:50:34.833Z,50.17
2018-09-25T11:53:10.269Z,50.24
2018-09-25T11:55:45.291Z,50.47
2018-09-25T11:58:20.415Z,50.14
2018-09-25T12:00:55.219Z,50.33
2018-09-25T12:03:30.766Z,50.37
2018-09-25T12:06:05.454Z,50.29
2018-09-25T12:08:40.470Z,50.70
2018-09-25T12:11:15.613Z,50.99
2018-09-25T12:13:51.270Z,51.28
2018-09-25T12:16:26.970Z,51.42
2018-09-25T12:19:01.947Z,50.90
2018-09-25T12:21:37.185Z,51.63
2018-09-25T12:24:13.696Z,50.98
2018-09-25T12:26:48.684Z,51.06
2018-09-25T12:29:24.084Z,51.70
2018-09-25T12:31:59.408Z,51.65
2018-09-25T12:34:34.107Z,51.76
2018-09-25T12:37:09.296Z,51.43
2018-09-25T12:39:43.813Z,51.46
2018-09-25T12:42:18.208Z,51.69
2018-09-25T12:44:53.428Z,51.91
2018-09-25T12:47:27.983Z,51.18
2018-09-25T12:50:02.913Z,51.07
2018-09-25T12:52:38.139Z,51.23
2018-09-25T12:55:13.467Z,51.13
2018-09-25T12:57:48.324Z,51.46
2018-09-25T13:00:24.205Z,51.23
2018-09-25T13:03:00.186Z,51.34
2018-09-25T13:05:35.087Z,51.76
2018-09-25T13:08:10.793Z,52.23
2018-09-25T13:10:45.463Z,51.89
2018-09-25T13:13:20.015Z,51.42
2018-09-25T13:15:54.797Z,51.77
2018-09-25T13:18:29.503Z,51.77
2018-09-25T13:21:04.777Z,51.94
2018-09-25T13:23:39.269Z,52.27
2018-09-25T13:26:13.914Z,51.86
2018-09-25T13:29:03.894Z,51.91
2018-09-25T13:31:40.247Z,51.83
2018-09-25T13:34:14.952Z,51.75
2018-09-25T13:37:00.376Z,51.45
2018-09-25T13:39:36.996Z,51.84
2018-09-25T13:42:12.728Z,51.81
2018-09-25T13:44:47.578Z,51.90
2018-09-25T13:47:23.911Z,52.39
2018-09-25T13:49:59.274Z,52.48
2018-09-25T13:52:37.259Z,52.37
2018-09-25T13:58:08.104Z,52.86
2018-09-25T14:00:42.601Z,52.92
2018-09-25T14:05:54.069Z,53.22
2018-09-25T14:08:28.874Z,53.02
2018-09-25T14:11:03.868Z,53.05
2018-09-25T14:13:39.963Z,53.38
2018-09-25T14:16:15.884Z,53.07
2018-09-25T14:18:50.833Z,53.43
2018-09-25T14:21:26.107Z,53.26
2018-09-25T14:24:00.983Z,53.41
2018-09-25T14:26:35.712Z,53.25
2018-09-25T14:29:10.310Z,52.90
2018-09-25T14:31:45.387Z,52.98
2018-09-25T14:34:20.297Z,53.21
2018-09-25T14:36:57.677Z,53.16
2018-09-25T14:39:32.350Z,53.07
2018-09-25T14:42:06.895Z,53.17
2018-09-25T14:44:41.441Z,52.83
2018-09-25T14:47:16.278Z,53.01
2018-09-25T14:49:51.351Z,52.97
2018-09-25T14:52:25.927Z,52.89
2018-09-25T14:55:00.939Z,53.28
2018-09-25T14:57:36.211Z,52.83
2018-09-25T15:00:11.646Z,52.90
2018-09-25T15:02:46.650Z,52.82
2018-09-25T15:05:21.332Z,52.82
2018-09-25T15:07:56.552Z,52.67
2018-09-25T15:10:31.367Z,52.87
2018-09-25T15:13:08.180Z,52.89
2018-09-25T15:15:43.281Z,52.88
2018-09-25T15:18:17.969Z,53.06
2018-09-25T15:20:53.319Z,52.83
2018-09-25T15:23:27.764Z,52.84
2018-09-25T15:26:03.200Z,52.92
2018-09-25T15:28:38.564Z,52.73
2018-09-25T15:31:13.855Z,53.06
2018-09-25T15:33:49.228Z,53.07
2018-09-25T15:36:25.030Z,52.84
2018-09-25T15:39:00.542Z,52.50
2018-09-25T15:41:37.161Z,50.27
2018-09-25T15:44:12.277Z,49.56
2018-09-25T15:46:48.412Z,49.65
2018-09-25T15:49:23.063Z,49.06
2018-09-25T15:51:58.230Z,48.74
2018-09-25T15:54:32.827Z,48.46
2018-09-25T15:57:07.950Z,48.31
2018-09-25T15:59:42.802Z,48.53
2018-09-25T16:02:18.829Z,48.66
2018-09-25T16:04:55.095Z,48.47
2018-09-25T16:07:29.553Z,48.51
2018-09-25T16:10:04.332Z,48.76
2018-09-25T16:12:38.960Z,48.72
2018-09-25T16:15:13.794Z,48.79
2018-09-25T16:17:48.698Z,48.97
2018-09-25T16:20:23.505Z,49.06
2018-09-25T16:22:58.324Z,49.12
2018-09-25T16:25:33.608Z,48.96
2018-09-25T16:28:08.138Z,49.19
2018-09-25T16:33:16.649Z,49.75
2018-09-25T16:35:51.668Z,50.11
2018-09-25T16:38:26.786Z,50.38
2018-09-25T16:41:01.844Z,50.17
2018-09-25T16:43:36.286Z,50.90
2018-09-25T16:46:10.832Z,51.07
2018-09-25T16:48:46.104Z,51.15
2018-09-25T16:51:20.819Z,51.45
2018-09-25T16:53:55.751Z,51.81
2018-09-25T16:56:30.348Z,51.70
2018-09-25T16:59:05.277Z,51.72
2018-09-25T17:01:40.069Z,51.61
2018-09-25T17:04:14.751Z,51.88
2018-09-25T17:06:49.468Z,52.27
2018-09-25T17:09:24.263Z,51.99
2018-09-25T17:11:59.196Z,52.55
2018-09-25T17:14:34.300Z,52.61
2018-09-25T17:17:09.047Z,53.01
2018-09-25T17:19:44.276Z,52.79
2018-09-25T17:22:19.096Z,52.83
2018-09-25T17:24:54.124Z,52.98
2018-09-25T17:27:29.196Z,52.97
2018-09-25T17:30:04.349Z,52.89
2018-09-25T17:32:40.302Z,52.64
2018-09-25T17:35:15.098Z,52.96
2018-09-25T17:37:51.518Z,52.80
2018-09-25T17:40:26.726Z,52.82
2018-09-25T17:43:01.182Z,52.90
2018-09-25T17:45:36.233Z,52.97
2018-09-25T17:48:10.847Z,53.21
2018-09-25T17:50:45.695Z,52.87
2018-09-25T17:53:20.468Z,52.83
2018-09-25T17:55:55.350Z,53.17
2018-09-25T18:01:35.532Z,53.21
2018-09-25T18:04:10.267Z,52.85
2018-09-25T18:06:44.929Z,53.04
2018-09-25T18:09:19.611Z,53.11
2018-09-25T18:11:54.243Z,53.13
2018-09-25T18:14:29.141Z,52.72
2018-09-25T18:17:04.184Z,52.84
2018-09-25T18:19:38.862Z,53.14
2018-09-25T18:22:14.188Z,52.93
2018-09-25T18:24:49.696Z,53.02
2018-09-25T18:27:24.445Z,52.80
2018-09-25T18:30:00.406Z,53.18
2018-09-25T18:32:35.171Z,52.83
2018-09-25T18:35:10.046Z,52.99
2018-09-25T18:37:45.084Z,53.16
2018-09-25T18:40:20.412Z,53.06
2018-09-25T18:42:55.437Z,53.28
2018-09-25T18:45:30.299Z,52.93
2018-09-25T18:48:05.325Z,52.88
2018-09-25T18:50:40.335Z,53.16
2018-09-25T18:53:15.544Z,53.31
2018-09-25T18:55:50.266Z,53.09
2018-09-25T18:58:25.143Z,52.86
2018-09-25T19:01:00.086Z,53.04
2018-09-25T19:03:34.699Z,52.83
2018-09-25T19:06:11.754Z,52.77
2018-09-25T19:08:49.208Z,52.83
2018-09-25T19:11:24.520Z,52.83
2018-09-25T19:13:59.218Z,52.87
2018-09-25T19:16:33.986Z,52.75
2018-09-25T19:19:09.080Z,53.10
2018-09-25T19:21:44.485Z,52.76
2018-09-25T19:24:20.129Z,52.77
2018-09-25T19:26:55.153Z,53.05
2018-09-25T19:29:30.404Z,52.90
2018-09-25T19:32:11.860Z,52.90
2018-09-25T19:34:47.542Z,52.88
2018-09-25T19:37:22.893Z,52.98
2018-09-25T19:39:58.331Z,52.95
2018-09-25T19:42:34.056Z,52.88
2018-09-25T19:45:10.340Z,52.51
2018-09-25T19:47:44.860Z,52.61
2018-09-25T19:50:20.541Z,52.48
2018-09-25T19:52:55.387Z,52.64
2018-09-25T19:55:30.287Z,52.62
2018-09-25T19:58:06.244Z,52.44
2018-09-25T20:00:41.750Z,52.80
2018-09-25T20:03:16.362Z,52.96
2018-09-25T20:05:51.147Z,52.62
2018-09-25T20:08:26.758Z,52.75
2018-09-25T20:11:01.828Z,52.55
2018-09-25T20:13:38.392Z,52.18
2018-09-25T20:16:14.059Z,51.95
2018-09-25T20:18:49.128Z,52.32
2018-09-25T20:21:24.186Z,52.27
2018-09-25T20:23:59.100Z,52.29
2018-09-25T20:26:34.379Z,52.20
2018-09-25T20:29:10.304Z,52.34
2018-09-25T20:31:46.106Z,52.45
2018-09-25T20:34:21.065Z,52.22
2018-09-25T20:36:56.559Z,52.20
2018-09-25T20:39:31.223Z,52.40
2018-09-25T20:42:06.592Z,52.13
2018-09-25T20:44:41.467Z,52.34
2018-09-25T20:47:16.445Z,52.17
2018-09-25T20:49:51.456Z,52.27
2018-09-25T20:52:26.003Z,51.97
2018-09-25T20:55:01.213Z,52.30
2018-09-25T20:57:36.171Z,51.81
2018-09-25T21:00:11.525Z,51.89
2018-09-25T21:02:46.968Z,52.23
2018-09-25T21:05:21.786Z,52.02
2018-09-25T21:07:56.279Z,52.01
2018-09-25T21:10:31.674Z,52.13
2018-09-25T21:13:06.531Z,52.45
2018-09-25T21:15:41.204Z,52.11
2018-09-25T21:18:17.043Z,51.77
2018-09-25T21:20:52.247Z,51.58
2018-09-25T21:23:28.099Z,51.79
2018-09-25T21:26:03.191Z,52.31
2018-09-25T21:28:37.906Z,52.28
2018-09-25T21:31:12.868Z,52.26
2018-09-25T21:33:47.364Z,52.26
2018-09-25T21:36:22.351Z,51.93
2018-09-25T21:38:57.509Z,51.88
2018-09-25T21:41:32.095Z,52.00
2018-09-25T21:44:07.289Z,51.51
2018-09-25T21:46:42.032Z,51.91
2018-09-25T21:49:16.575Z,51.86
2018-09-25T21:51:51.754Z,52.14
2018-09-25T21:54:26.115Z,52.35
2018-09-25T21:57:01.777Z,52.21
2018-09-25T21:59:36.351Z,52.23
2018-09-25T22:02:11.384Z,52.52
2018-09-25T22:04:46.199Z,52.68
2018-09-25T22:07:21.318Z,52.41
2018-09-25T22:09:56.310Z,52.73
2018-09-25T22:12:31.149Z,52.98
2018-09-25T22:15:06.082Z,53.09
2018-09-25T22:17:40.752Z,53.19
2018-09-25T22:20:15.596Z,53.16
2018-09-25T22:22:50.203Z,53.64
2018-09-25T22:25:25.358Z,53.33
2018-09-25T22:27:59.865Z,53.71
2018-09-25T22:30:34.492Z,53.39
2018-09-25T22:33:09.431Z,53.77
2018-09-25T22:35:44.124Z,53.66
2018-09-25T22:38:18.973Z,53.82
2018-09-25T22:40:53.779Z,53.66
2018-09-25T22:43:28.344Z,54.04
2018-09-25T22:46:03.049Z,54.03
2018-09-25T22:48:37.740Z,53.88
2018-09-25T22:51:12.693Z,54.17
2018-09-25T22:53:47.372Z,54.42
2018-09-25T22:56:21.989Z,54.18
2018-09-25T22:58:56.842Z,54.39
2018-09-25T23:01:31.724Z,54.10
2018-09-25T23:04:06.631Z,54.46
2018-09-25T23:06:41.303Z,54.25
2018-09-25T23:09:15.832Z,54.35
2018-09-25T23:11:50.715Z,54.38
2018-09-25T23:14:25.403Z,54.56
2018-09-25T23:17:00.180Z,54.67
2018-09-25T23:19:35.392Z,54.34
2018-09-25T23:22:10.296Z,54.26
2018-09-25T23:24:45.454Z,54.63
2018-09-25T23:27:19.957Z,54.54
2018-09-25T23:29:54.493Z,54.40
2018-09-25T23:32:29.276Z,54.64
2018-09-25T23:35:04.143Z,54.55
2018-09-25T23:37:38.859Z,54.84
2018-09-25T23:41:18.524Z,54.91
2018-09-25T23:43:55.928Z,54.73
2018-09-25T23:46:45.369Z,54.74
2018-09-25T23:49:26.652Z,55.00
2018-09-25T23:52:01.959Z,55.03
2018-09-25T23:54:37.483Z,54.82
2018-09-25T23:57:15.805Z,55.27
2018-09-25T23:59:57.489Z,55.04
